sensor_id;sensor_type;location;lat;lon;timestamp;temperature;humidity
12845;DHT22;68700;48.534;9.196;2023-06-10T00:01:05;15.40;1.00
12845;DHT22;68700;48.534;9.196;2023-06-10T00:04:28;15.40;1.00
12845;DHT22;68700;48.534;9.196;2023-06-10T00:07:50;15.30;1.00
12845;DHT22;68700;48.534;9.196;2023-06-10T00:11:15;15.20;1.00
12845;DHT22;68700;48.534;9.196;2023-06-10T00:14:39;15.20;1.00
12845;DHT22;68700;48.534;9.196;2023-06-10T00:18:04;15.20;1.00
12845;DHT22;68700;48.534;9.196;2023-06-10T00:21:27;15.10;1.00
12845;DHT22;68700;48.534;9.196;2023-06-10T00:24:49;15.00;1.00
12845;DHT22;68700;48.534;9.196;2023-06-10T00:28:11;15.00;1.00
12845;DHT22;68700;48.534;9.196;2023-06-10T00:31:34;15.00;1.00
12845;DHT22;68700;48.534;9.196;2023-06-10T00:34:56;15.00;1.00
12845;DHT22;68700;48.534;9.196;2023-06-10T00:38:19;14.90;1.00
12845;DHT22;68700;48.534;9.196;2023-06-10T00:41:41;14.90;1.00
12845;DHT22;68700;48.534;9.196;2023-06-10T00:45:04;14.90;1.00
12845;DHT22;68700;48.534;9.196;2023-06-10T00:48:26;14.80;1.00
12845;DHT22;68700;48.534;9.196;2023-06-10T00:51:48;14.70;1.00
12845;DHT22;68700;48.534;9.196;2023-06-10T00:55:11;14.70;1.00
12845;DHT22;68700;48.534;9.196;2023-06-10T00:58:33;14.70;1.00
12845;DHT22;68700;48.534;9.196;2023-06-10T01:01:56;14.60;1.00
12845;DHT22;68700;48.534;9.196;2023-06-10T01:05:18;14.60;1.00
12845;DHT22;68700;48.534;9.196;2023-06-10T01:08:45;14.50;1.00
12845;DHT22;68700;48.534;9.196;2023-06-10T01:12:14;14.50;1.00
12845;DHT22;68700;48.534;9.196;2023-06-10T01:15:39;14.50;1.00
12845;DHT22;68700;48.534;9.196;2023-06-10T01:19:01;14.40;1.00
12845;DHT22;68700;48.534;9.196;2023-06-10T01:22:25;14.40;1.00
12845;DHT22;68700;48.534;9.196;2023-06-10T01:25:53;14.30;1.00
12845;DHT22;68700;48.534;9.196;2023-06-10T01:29:19;14.30;1.00
12845;DHT22;68700;48.534;9.196;2023-06-10T01:32:44;14.20;1.00
12845;DHT22;68700;48.534;9.196;2023-06-10T01:36:07;14.10;1.00
12845;DHT22;68700;48.534;9.196;2023-06-10T01:39:32;14.00;1.00
12845;DHT22;68700;48.534;9.196;2023-06-10T01:42:54;14.00;1.00
12845;DHT22;68700;48.534;9.196;2023-06-10T01:46:16;13.90;1.00
12845;DHT22;68700;48.534;9.196;2023-06-10T01:49:40;13.90;1.00
12845;DHT22;68700;48.534;9.196;2023-06-10T01:53:03;13.80;1.00
12845;DHT22;68700;48.534;9.196;2023-06-10T01:56:27;13.80;1.00
12845;DHT22;68700;48.534;9.196;2023-06-10T01:59:48;13.80;1.00
12845;DHT22;68700;48.534;9.196;2023-06-10T02:03:10;13.70;1.00
12845;DHT22;68700;48.534;9.196;2023-06-10T02:06:32;13.70;1.00
12845;DHT22;68700;48.534;9.196;2023-06-10T02:09:58;13.70;1.00
12845;DHT22;68700;48.534;9.196;2023-06-10T02:13:21;13.70;1.00
12845;DHT22;68700;48.534;9.196;2023-06-10T02:16:43;13.80;1.00
12845;DHT22;68700;48.534;9.196;2023-06-10T02:20:08;13.70;1.00
12845;DHT22;68700;48.534;9.196;2023-06-10T02:23:31;13.70;1.00
12845;DHT22;68700;48.534;9.196;2023-06-10T02:26:58;13.70;1.00
12845;DHT22;68700;48.534;9.196;2023-06-10T02:30:22;13.70;1.00
12845;DHT22;68700;48.534;9.196;2023-06-10T02:33:44;13.60;1.00
12845;DHT22;68700;48.534;9.196;2023-06-10T02:37:06;13.60;1.00
12845;DHT22;68700;48.534;9.196;2023-06-10T02:40:28;13.60;1.00
12845;DHT22;68700;48.534;9.196;2023-06-10T02:43:50;13.50;1.00
12845;DHT22;68700;48.534;9.196;2023-06-10T02:47:13;13.50;1.00
12845;DHT22;68700;48.534;9.196;2023-06-10T02:50:35;13.50;1.00
12845;DHT22;68700;48.534;9.196;2023-06-10T02:53:59;13.40;1.00
12845;DHT22;68700;48.534;9.196;2023-06-10T02:57:21;13.30;1.00
12845;DHT22;68700;48.534;9.196;2023-06-10T03:00:43;13.20;1.00
12845;DHT22;68700;48.534;9.196;2023-06-10T03:04:07;13.20;1.00
12845;DHT22;68700;48.534;9.196;2023-06-10T03:07:29;13.20;1.00
12845;DHT22;68700;48.534;9.196;2023-06-10T03:10:54;13.10;1.00
12845;DHT22;68700;48.534;9.196;2023-06-10T03:14:16;13.10;1.00
12845;DHT22;68700;48.534;9.196;2023-06-10T03:17:38;13.10;1.00
12845;DHT22;68700;48.534;9.196;2023-06-10T03:21:01;13.10;1.00
12845;DHT22;68700;48.534;9.196;2023-06-10T03:24:23;13.10;1.00
12845;DHT22;68700;48.534;9.196;2023-06-10T03:27:45;13.00;1.00
12845;DHT22;68700;48.534;9.196;2023-06-10T03:31:07;13.00;1.00
12845;DHT22;68700;48.534;9.196;2023-06-10T03:34:29;13.00;1.00
12845;DHT22;68700;48.534;9.196;2023-06-10T03:37:53;13.00;1.00
12845;DHT22;68700;48.534;9.196;2023-06-10T03:41:15;13.00;1.00
12845;DHT22;68700;48.534;9.196;2023-06-10T03:44:36;13.00;1.00
12845;DHT22;68700;48.534;9.196;2023-06-10T03:47:58;13.00;1.00
12845;DHT22;68700;48.534;9.196;2023-06-10T03:51:23;13.00;1.00
12845;DHT22;68700;48.534;9.196;2023-06-10T04:11:18;13.30;1.00
12845;DHT22;68700;48.534;9.196;2023-06-10T04:42:56;13.70;1.00
12845;DHT22;68700;48.534;9.196;2023-06-10T04:46:21;13.80;1.00
12845;DHT22;68700;48.534;9.196;2023-06-10T04:49:43;13.80;1.00
12845;DHT22;68700;48.534;9.196;2023-06-10T04:53:05;14.00;1.00
12845;DHT22;68700;48.534;9.196;2023-06-10T04:56:28;14.10;1.00
12845;DHT22;68700;48.534;9.196;2023-06-10T04:59:52;14.20;1.00
12845;DHT22;68700;48.534;9.196;2023-06-10T05:03:14;14.30;1.00
12845;DHT22;68700;48.534;9.196;2023-06-10T05:06:35;14.40;1.00
12845;DHT22;68700;48.534;9.196;2023-06-10T05:09:57;14.60;1.00
12845;DHT22;68700;48.534;9.196;2023-06-10T05:13:19;14.80;1.00
12845;DHT22;68700;48.534;9.196;2023-06-10T05:16:43;14.90;1.00
12845;DHT22;68700;48.534;9.196;2023-06-10T05:20:06;15.10;1.00
12845;DHT22;68700;48.534;9.196;2023-06-10T05:23:28;15.30;1.00
12845;DHT22;68700;48.534;9.196;2023-06-10T05:26:50;15.40;1.00
12845;DHT22;68700;48.534;9.196;2023-06-10T05:30:12;15.50;1.00
12845;DHT22;68700;48.534;9.196;2023-06-10T05:33:35;15.70;1.00
12845;DHT22;68700;48.534;9.196;2023-06-10T05:36:57;15.80;1.00
12845;DHT22;68700;48.534;9.196;2023-06-10T05:40:19;16.00;1.00
12845;DHT22;68700;48.534;9.196;2023-06-10T05:43:41;16.10;1.00
12845;DHT22;68700;48.534;9.196;2023-06-10T05:47:04;16.30;1.00
12845;DHT22;68700;48.534;9.196;2023-06-10T05:50:27;16.40;1.00
12845;DHT22;68700;48.534;9.196;2023-06-10T05:53:49;16.60;1.00
12845;DHT22;68700;48.534;9.196;2023-06-10T05:57:11;16.70;1.00
12845;DHT22;68700;48.534;9.196;2023-06-10T06:00:33;17.00;1.00
12845;DHT22;68700;48.534;9.196;2023-06-10T06:03:55;17.10;1.00
12845;DHT22;68700;48.534;9.196;2023-06-10T06:07:18;17.40;1.00
12845;DHT22;68700;48.534;9.196;2023-06-10T06:10:41;17.60;1.00
12845;DHT22;68700;48.534;9.196;2023-06-10T06:14:02;17.80;1.00
12845;DHT22;68700;48.534;9.196;2023-06-10T06:17:24;18.00;1.00
12845;DHT22;68700;48.534;9.196;2023-06-10T06:20:46;18.40;1.00
12845;DHT22;68700;48.534;9.196;2023-06-10T06:24:09;19.30;1.00
12845;DHT22;68700;48.534;9.196;2023-06-10T06:27:31;20.20;1.00
12845;DHT22;68700;48.534;9.196;2023-06-10T06:30:53;20.80;1.00
12845;DHT22;68700;48.534;9.196;2023-06-10T06:34:15;21.20;1.00
12845;DHT22;68700;48.534;9.196;2023-06-10T06:37:37;21.80;1.00
12845;DHT22;68700;48.534;9.196;2023-06-10T06:41:00;22.10;1.00
12845;DHT22;68700;48.534;9.196;2023-06-10T06:44:23;22.60;1.00
12845;DHT22;68700;48.534;9.196;2023-06-10T06:47:45;22.90;1.00
12845;DHT22;68700;48.534;9.196;2023-06-10T06:51:09;23.20;1.00
12845;DHT22;68700;48.534;9.196;2023-06-10T06:54:31;23.70;1.00
12845;DHT22;68700;48.534;9.196;2023-06-10T06:57:54;24.10;1.00
12845;DHT22;68700;48.534;9.196;2023-06-10T07:01:16;24.60;1.00
12845;DHT22;68700;48.534;9.196;2023-06-10T07:04:38;24.80;1.00
12845;DHT22;68700;48.534;9.196;2023-06-10T07:08:01;25.30;99.90
12845;DHT22;68700;48.534;9.196;2023-06-10T07:11:23;25.90;99.90
12845;DHT22;68700;48.534;9.196;2023-06-10T07:14:47;26.00;99.90
12845;DHT22;68700;48.534;9.196;2023-06-10T07:18:08;25.90;99.90
12845;DHT22;68700;48.534;9.196;2023-06-10T07:21:30;26.40;99.90
12845;DHT22;68700;48.534;9.196;2023-06-10T07:24:53;25.80;1.00
12845;DHT22;68700;48.534;9.196;2023-06-10T07:28:16;26.40;99.90
12845;DHT22;68700;48.534;9.196;2023-06-10T07:31:40;26.60;99.90
12845;DHT22;68700;48.534;9.196;2023-06-10T07:35:03;27.40;99.90
12845;DHT22;68700;48.534;9.196;2023-06-10T07:38:25;28.00;99.90
12845;DHT22;68700;48.534;9.196;2023-06-10T07:41:47;28.50;99.90
12845;DHT22;68700;48.534;9.196;2023-06-10T07:45:10;28.90;99.90
12845;DHT22;68700;48.534;9.196;2023-06-10T07:48:33;28.90;99.90
12845;DHT22;68700;48.534;9.196;2023-06-10T07:51:55;29.20;99.90
12845;DHT22;68700;48.534;9.196;2023-06-10T07:55:17;29.60;99.90
12845;DHT22;68700;48.534;9.196;2023-06-10T07:58:45;30.10;99.90
12845;DHT22;68700;48.534;9.196;2023-06-10T08:02:06;29.40;99.90
12845;DHT22;68700;48.534;9.196;2023-06-10T08:05:30;29.50;99.90
12845;DHT22;68700;48.534;9.196;2023-06-10T08:08:51;30.30;99.90
12845;DHT22;68700;48.534;9.196;2023-06-10T08:12:13;31.00;99.90
12845;DHT22;68700;48.534;9.196;2023-06-10T08:15:35;31.00;99.90
12845;DHT22;68700;48.534;9.196;2023-06-10T08:18:57;29.60;99.90
12845;DHT22;68700;48.534;9.196;2023-06-10T08:22:20;30.60;99.90
12845;DHT22;68700;48.534;9.196;2023-06-10T08:25:42;30.10;99.90
12845;DHT22;68700;48.534;9.196;2023-06-10T08:29:04;29.60;99.90
12845;DHT22;68700;48.534;9.196;2023-06-10T08:32:26;30.80;99.90
12845;DHT22;68700;48.534;9.196;2023-06-10T08:35:48;31.10;1.00
12845;DHT22;68700;48.534;9.196;2023-06-10T08:39:11;31.20;99.90
12845;DHT22;68700;48.534;9.196;2023-06-10T08:42:37;30.80;99.90
12845;DHT22;68700;48.534;9.196;2023-06-10T08:46:01;31.40;99.90
12845;DHT22;68700;48.534;9.196;2023-06-10T08:49:26;32.20;99.90
12845;DHT22;68700;48.534;9.196;2023-06-10T08:52:50;32.00;99.90
12845;DHT22;68700;48.534;9.196;2023-06-10T08:56:14;31.30;99.90
12845;DHT22;68700;48.534;9.196;2023-06-10T08:59:36;32.00;99.90
12845;DHT22;68700;48.534;9.196;2023-06-10T09:02:59;31.70;99.90
12845;DHT22;68700;48.534;9.196;2023-06-10T09:06:22;30.90;99.90
12845;DHT22;68700;48.534;9.196;2023-06-10T09:09:45;31.80;99.90
12845;DHT22;68700;48.534;9.196;2023-06-10T09:13:08;30.50;99.90
12845;DHT22;68700;48.534;9.196;2023-06-10T09:16:30;31.20;99.90
12845;DHT22;68700;48.534;9.196;2023-06-10T09:19:52;31.50;99.90
12845;DHT22;68700;48.534;9.196;2023-06-10T09:23:15;32.90;99.90
12845;DHT22;68700;48.534;9.196;2023-06-10T09:26:38;33.90;99.90
12845;DHT22;68700;48.534;9.196;2023-06-10T09:30:01;33.90;99.90
12845;DHT22;68700;48.534;9.196;2023-06-10T09:33:26;33.10;99.90
12845;DHT22;68700;48.534;9.196;2023-06-10T09:36:48;31.60;99.90
12845;DHT22;68700;48.534;9.196;2023-06-10T09:40:11;30.00;99.90
12845;DHT22;68700;48.534;9.196;2023-06-10T09:43:40;31.40;99.90
12845;DHT22;68700;48.534;9.196;2023-06-10T09:47:04;32.80;99.90
12845;DHT22;68700;48.534;9.196;2023-06-10T09:50:26;33.80;99.90
12845;DHT22;68700;48.534;9.196;2023-06-10T09:53:48;33.90;99.90
12845;DHT22;68700;48.534;9.196;2023-06-10T09:57:11;33.10;99.90
12845;DHT22;68700;48.534;9.196;2023-06-10T10:00:33;33.70;99.90
12845;DHT22;68700;48.534;9.196;2023-06-10T10:03:57;34.90;99.90
12845;DHT22;68700;48.534;9.196;2023-06-10T10:07:19;35.00;99.90
12845;DHT22;68700;48.534;9.196;2023-06-10T10:10:41;34.60;99.90
12845;DHT22;68700;48.534;9.196;2023-06-10T10:14:04;35.30;99.90
12845;DHT22;68700;48.534;9.196;2023-06-10T10:17:26;35.60;99.90
12845;DHT22;68700;48.534;9.196;2023-06-10T10:20:50;35.40;99.90
12845;DHT22;68700;48.534;9.196;2023-06-10T10:24:17;34.70;99.90
12845;DHT22;68700;48.534;9.196;2023-06-10T10:27:44;35.30;99.90
12845;DHT22;68700;48.534;9.196;2023-06-10T10:31:08;35.10;99.90
12845;DHT22;68700;48.534;9.196;2023-06-10T10:34:37;35.60;99.90
12845;DHT22;68700;48.534;9.196;2023-06-10T10:38:02;35.70;99.90
12845;DHT22;68700;48.534;9.196;2023-06-10T10:41:25;35.60;99.90
12845;DHT22;68700;48.534;9.196;2023-06-10T10:44:49;35.70;99.90
12845;DHT22;68700;48.534;9.196;2023-06-10T10:48:12;35.90;99.90
12845;DHT22;68700;48.534;9.196;2023-06-10T10:51:35;36.40;99.90
12845;DHT22;68700;48.534;9.196;2023-06-10T10:54:59;36.50;99.90
12845;DHT22;68700;48.534;9.196;2023-06-10T10:58:24;37.10;99.90
12845;DHT22;68700;48.534;9.196;2023-06-10T11:01:46;36.40;99.90
12845;DHT22;68700;48.534;9.196;2023-06-10T11:05:10;33.60;99.90
12845;DHT22;68700;48.534;9.196;2023-06-10T11:08:47;32.90;99.90
12845;DHT22;68700;48.534;9.196;2023-06-10T11:12:12;33.00;99.90
12845;DHT22;68700;48.534;9.196;2023-06-10T11:15:44;33.10;99.90
12845;DHT22;68700;48.534;9.196;2023-06-10T11:19:07;34.10;99.90
12845;DHT22;68700;48.534;9.196;2023-06-10T11:22:29;35.50;99.90
12845;DHT22;68700;48.534;9.196;2023-06-10T11:25:51;36.10;99.90
12845;DHT22;68700;48.534;9.196;2023-06-10T11:29:15;36.30;99.90
12845;DHT22;68700;48.534;9.196;2023-06-10T11:32:37;36.60;99.90
12845;DHT22;68700;48.534;9.196;2023-06-10T11:35:59;36.50;99.90
12845;DHT22;68700;48.534;9.196;2023-06-10T11:39:22;35.90;99.90
12845;DHT22;68700;48.534;9.196;2023-06-10T11:42:46;35.70;99.90
12845;DHT22;68700;48.534;9.196;2023-06-10T11:46:10;36.80;99.90
12845;DHT22;68700;48.534;9.196;2023-06-10T11:49:31;37.40;99.90
12845;DHT22;68700;48.534;9.196;2023-06-10T11:52:53;37.70;99.90
12845;DHT22;68700;48.534;9.196;2023-06-10T11:56:19;37.90;99.90
12845;DHT22;68700;48.534;9.196;2023-06-10T11:59:41;37.90;99.90
12845;DHT22;68700;48.534;9.196;2023-06-10T12:03:05;37.80;99.90
12845;DHT22;68700;48.534;9.196;2023-06-10T12:06:27;37.20;99.90
12845;DHT22;68700;48.534;9.196;2023-06-10T12:09:58;37.10;99.90
12845;DHT22;68700;48.534;9.196;2023-06-10T12:13:21;35.40;99.90
12845;DHT22;68700;48.534;9.196;2023-06-10T12:16:48;34.50;99.90
12845;DHT22;68700;48.534;9.196;2023-06-10T12:20:26;35.60;99.90
12845;DHT22;68700;48.534;9.196;2023-06-10T12:24:05;36.80;99.90
12845;DHT22;68700;48.534;9.196;2023-06-10T12:27:27;36.70;99.90
12845;DHT22;68700;48.534;9.196;2023-06-10T12:30:50;35.50;99.90
12845;DHT22;68700;48.534;9.196;2023-06-10T12:34:12;35.70;99.90
12845;DHT22;68700;48.534;9.196;2023-06-10T12:37:36;35.30;99.90
12845;DHT22;68700;48.534;9.196;2023-06-10T12:41:02;35.60;99.90
12845;DHT22;68700;48.534;9.196;2023-06-10T12:44:34;33.80;99.90
12845;DHT22;68700;48.534;9.196;2023-06-10T12:48:06;33.20;99.90
12845;DHT22;68700;48.534;9.196;2023-06-10T12:51:29;32.70;99.90
12845;DHT22;68700;48.534;9.196;2023-06-10T12:54:53;32.10;99.90
12845;DHT22;68700;48.534;9.196;2023-06-10T12:58:15;32.70;99.90
12845;DHT22;68700;48.534;9.196;2023-06-10T13:01:38;34.10;99.90
12845;DHT22;68700;48.534;9.196;2023-06-10T13:05:00;35.40;99.90
12845;DHT22;68700;48.534;9.196;2023-06-10T13:08:25;36.50;99.90
12845;DHT22;68700;48.534;9.196;2023-06-10T13:11:49;36.90;99.90
12845;DHT22;68700;48.534;9.196;2023-06-10T13:15:11;36.50;99.90
12845;DHT22;68700;48.534;9.196;2023-06-10T13:18:32;37.20;99.90
12845;DHT22;68700;48.534;9.196;2023-06-10T13:21:57;37.00;99.90
12845;DHT22;68700;48.534;9.196;2023-06-10T13:25:19;37.10;99.90
12845;DHT22;68700;48.534;9.196;2023-06-10T13:28:43;37.60;99.90
12845;DHT22;68700;48.534;9.196;2023-06-10T13:32:05;36.60;1.00
12845;DHT22;68700;48.534;9.196;2023-06-10T13:35:27;37.10;99.90
12845;DHT22;68700;48.534;9.196;2023-06-10T13:38:49;38.10;99.90
12845;DHT22;68700;48.534;9.196;2023-06-10T13:42:13;38.20;99.90
12845;DHT22;68700;48.534;9.196;2023-06-10T13:45:36;37.50;99.90
12845;DHT22;68700;48.534;9.196;2023-06-10T13:48:58;36.10;99.90
12845;DHT22;68700;48.534;9.196;2023-06-10T13:52:20;34.50;99.90
12845;DHT22;68700;48.534;9.196;2023-06-10T13:55:47;33.80;99.90
12845;DHT22;68700;48.534;9.196;2023-06-10T13:59:09;34.50;99.90
12845;DHT22;68700;48.534;9.196;2023-06-10T14:02:32;35.10;99.90
12845;DHT22;68700;48.534;9.196;2023-06-10T14:05:54;34.30;99.90
12845;DHT22;68700;48.534;9.196;2023-06-10T14:09:16;34.80;99.90
12845;DHT22;68700;48.534;9.196;2023-06-10T14:12:38;35.50;99.90
12845;DHT22;68700;48.534;9.196;2023-06-10T14:16:00;36.40;99.90
12845;DHT22;68700;48.534;9.196;2023-06-10T14:19:27;36.40;99.90
12845;DHT22;68700;48.534;9.196;2023-06-10T14:22:49;35.60;99.90
12845;DHT22;68700;48.534;9.196;2023-06-10T14:26:11;35.70;99.90
12845;DHT22;68700;48.534;9.196;2023-06-10T14:29:33;35.70;99.90
12845;DHT22;68700;48.534;9.196;2023-06-10T14:32:55;36.30;99.90
12845;DHT22;68700;48.534;9.196;2023-06-10T14:36:18;35.90;99.90
12845;DHT22;68700;48.534;9.196;2023-06-10T14:39:40;35.90;99.90
12845;DHT22;68700;48.534;9.196;2023-06-10T14:43:02;36.10;99.90
12845;DHT22;68700;48.534;9.196;2023-06-10T14:46:30;36.30;99.90
12845;DHT22;68700;48.534;9.196;2023-06-10T14:49:52;36.00;99.90
12845;DHT22;68700;48.534;9.196;2023-06-10T14:53:15;34.90;99.90
12845;DHT22;68700;48.534;9.196;2023-06-10T14:56:37;33.90;99.90
12845;DHT22;68700;48.534;9.196;2023-06-10T14:59:59;34.00;99.90
12845;DHT22;68700;48.534;9.196;2023-06-10T15:03:21;34.80;99.90
12845;DHT22;68700;48.534;9.196;2023-06-10T15:06:42;35.40;99.90
12845;DHT22;68700;48.534;9.196;2023-06-10T15:10:07;35.20;99.90
12845;DHT22;68700;48.534;9.196;2023-06-10T15:13:30;35.20;99.90
12845;DHT22;68700;48.534;9.196;2023-06-10T15:16:51;35.20;99.90
12845;DHT22;68700;48.534;9.196;2023-06-10T15:20:13;33.90;99.90
12845;DHT22;68700;48.534;9.196;2023-06-10T15:23:35;32.40;99.90
12845;DHT22;68700;48.534;9.196;2023-06-10T15:26:59;31.20;99.90
12845;DHT22;68700;48.534;9.196;2023-06-10T15:30:21;31.00;99.90
12845;DHT22;68700;48.534;9.196;2023-06-10T15:33:43;31.50;99.90
12845;DHT22;68700;48.534;9.196;2023-06-10T15:37:08;32.00;99.90
12845;DHT22;68700;48.534;9.196;2023-06-10T15:40:29;32.10;99.90
12845;DHT22;68700;48.534;9.196;2023-06-10T15:43:53;32.80;99.90
12845;DHT22;68700;48.534;9.196;2023-06-10T15:47:15;32.70;99.90
12845;DHT22;68700;48.534;9.196;2023-06-10T15:50:37;32.90;99.90
12845;DHT22;68700;48.534;9.196;2023-06-10T15:53:59;32.50;99.90
12845;DHT22;68700;48.534;9.196;2023-06-10T15:57:21;32.10;99.90
12845;DHT22;68700;48.534;9.196;2023-06-10T16:00:44;32.00;99.90
12845;DHT22;68700;48.534;9.196;2023-06-10T16:04:06;32.20;99.90
12845;DHT22;68700;48.534;9.196;2023-06-10T16:07:28;32.40;99.90
12845;DHT22;68700;48.534;9.196;2023-06-10T16:10:49;32.20;99.90
12845;DHT22;68700;48.534;9.196;2023-06-10T16:14:11;31.90;99.90
12845;DHT22;68700;48.534;9.196;2023-06-10T16:17:35;31.80;99.90
12845;DHT22;68700;48.534;9.196;2023-06-10T16:20:58;31.70;99.90
12845;DHT22;68700;48.534;9.196;2023-06-10T16:24:20;31.50;99.90
12845;DHT22;68700;48.534;9.196;2023-06-10T16:27:42;31.50;99.90
12845;DHT22;68700;48.534;9.196;2023-06-10T16:31:04;31.10;99.90
12845;DHT22;68700;48.534;9.196;2023-06-10T16:34:27;31.10;99.90
12845;DHT22;68700;48.534;9.196;2023-06-10T16:37:49;31.10;99.90
12845;DHT22;68700;48.534;9.196;2023-06-10T16:41:11;30.80;99.90
12845;DHT22;68700;48.534;9.196;2023-06-10T16:44:33;30.70;99.90
12845;DHT22;68700;48.534;9.196;2023-06-10T16:47:54;30.80;99.90
12845;DHT22;68700;48.534;9.196;2023-06-10T16:51:18;30.70;99.90
12845;DHT22;68700;48.534;9.196;2023-06-10T16:54:40;30.70;99.90
12845;DHT22;68700;48.534;9.196;2023-06-10T16:58:02;30.50;99.90
12845;DHT22;68700;48.534;9.196;2023-06-10T17:01:24;30.00;99.90
12845;DHT22;68700;48.534;9.196;2023-06-10T17:04:46;29.70;99.90
12845;DHT22;68700;48.534;9.196;2023-06-10T17:08:09;29.60;99.90
12845;DHT22;68700;48.534;9.196;2023-06-10T17:11:31;29.60;99.90
12845;DHT22;68700;48.534;9.196;2023-06-10T17:14:53;29.70;99.90
12845;DHT22;68700;48.534;9.196;2023-06-10T17:18:15;29.70;99.90
12845;DHT22;68700;48.534;9.196;2023-06-10T17:21:37;29.60;99.90
12845;DHT22;68700;48.534;9.196;2023-06-10T17:25:00;29.20;99.90
12845;DHT22;68700;48.534;9.196;2023-06-10T17:28:22;29.00;99.90
12845;DHT22;68700;48.534;9.196;2023-06-10T17:31:44;29.00;99.90
12845;DHT22;68700;48.534;9.196;2023-06-10T17:35:06;28.80;99.90
12845;DHT22;68700;48.534;9.196;2023-06-10T17:38:28;28.70;99.90
12845;DHT22;68700;48.534;9.196;2023-06-10T17:41:51;28.40;99.90
12845;DHT22;68700;48.534;9.196;2023-06-10T17:45:13;28.30;99.90
12845;DHT22;68700;48.534;9.196;2023-06-10T17:48:36;28.10;99.90
12845;DHT22;68700;48.534;9.196;2023-06-10T17:51:58;28.10;99.90
12845;DHT22;68700;48.534;9.196;2023-06-10T17:55:20;28.30;99.90
12845;DHT22;68700;48.534;9.196;2023-06-10T17:58:43;28.30;99.90
12845;DHT22;68700;48.534;9.196;2023-06-10T18:02:05;28.40;99.90
12845;DHT22;68700;48.534;9.196;2023-06-10T18:05:27;28.30;99.90
12845;DHT22;68700;48.534;9.196;2023-06-10T18:08:50;28.20;99.90
12845;DHT22;68700;48.534;9.196;2023-06-10T18:12:12;27.90;99.90
12845;DHT22;68700;48.534;9.196;2023-06-10T18:15:35;27.60;99.90
12845;DHT22;68700;48.534;9.196;2023-06-10T18:18:57;27.30;99.90
12845;DHT22;68700;48.534;9.196;2023-06-10T18:22:19;26.90;99.90
12845;DHT22;68700;48.534;9.196;2023-06-10T18:25:43;26.70;99.90
12845;DHT22;68700;48.534;9.196;2023-06-10T18:29:04;26.40;99.90
12845;DHT22;68700;48.534;9.196;2023-06-10T18:32:28;26.20;99.90
12845;DHT22;68700;48.534;9.196;2023-06-10T18:35:50;26.00;99.90
12845;DHT22;68700;48.534;9.196;2023-06-10T18:39:11;25.80;99.90
12845;DHT22;68700;48.534;9.196;2023-06-10T18:42:33;25.60;99.90
12845;DHT22;68700;48.534;9.196;2023-06-10T18:45:55;25.40;99.90
12845;DHT22;68700;48.534;9.196;2023-06-10T18:49:20;25.30;99.90
12845;DHT22;68700;48.534;9.196;2023-06-10T18:52:41;25.20;99.90
12845;DHT22;68700;48.534;9.196;2023-06-10T18:56:04;25.00;99.90
12845;DHT22;68700;48.534;9.196;2023-06-10T18:59:25;24.90;99.90
12845;DHT22;68700;48.534;9.196;2023-06-10T19:02:47;24.80;99.90
12845;DHT22;68700;48.534;9.196;2023-06-10T19:06:11;24.70;99.90
12845;DHT22;68700;48.534;9.196;2023-06-10T19:09:32;24.60;99.90
12845;DHT22;68700;48.534;9.196;2023-06-10T19:12:54;24.50;99.90
12845;DHT22;68700;48.534;9.196;2023-06-10T19:16:16;24.30;99.90
12845;DHT22;68700;48.534;9.196;2023-06-10T19:19:38;24.20;99.90
12845;DHT22;68700;48.534;9.196;2023-06-10T19:23:01;24.10;99.90
12845;DHT22;68700;48.534;9.196;2023-06-10T19:26:24;23.90;99.90
12845;DHT22;68700;48.534;9.196;2023-06-10T19:29:46;23.90;99.90
12845;DHT22;68700;48.534;9.196;2023-06-10T19:33:08;23.80;99.90
12845;DHT22;68700;48.534;9.196;2023-06-10T19:36:30;23.70;99.90
12845;DHT22;68700;48.534;9.196;2023-06-10T19:39:53;23.60;99.90
12845;DHT22;68700;48.534;9.196;2023-06-10T19:43:15;23.40;99.90
12845;DHT22;68700;48.534;9.196;2023-06-10T19:46:37;23.40;99.90
12845;DHT22;68700;48.534;9.196;2023-06-10T19:49:59;23.20;99.90
12845;DHT22;68700;48.534;9.196;2023-06-10T19:53:21;23.10;99.90
12845;DHT22;68700;48.534;9.196;2023-06-10T19:56:44;23.00;99.90
12845;DHT22;68700;48.534;9.196;2023-06-10T20:00:07;22.90;99.90
12845;DHT22;68700;48.534;9.196;2023-06-10T20:03:29;22.80;99.90
12845;DHT22;68700;48.534;9.196;2023-06-10T20:06:51;22.70;99.90
12845;DHT22;68700;48.534;9.196;2023-06-10T20:10:13;22.60;99.90
12845;DHT22;68700;48.534;9.196;2023-06-10T20:13:37;22.40;99.90
12845;DHT22;68700;48.534;9.196;2023-06-10T20:16:59;22.30;99.90
12845;DHT22;68700;48.534;9.196;2023-06-10T20:20:21;22.20;99.90
12845;DHT22;68700;48.534;9.196;2023-06-10T20:23:43;22.10;99.90
12845;DHT22;68700;48.534;9.196;2023-06-10T20:27:08;22.00;99.90
12845;DHT22;68700;48.534;9.196;2023-06-10T20:30:31;22.00;99.90
12845;DHT22;68700;48.534;9.196;2023-06-10T20:33:55;21.90;99.90
12845;DHT22;68700;48.534;9.196;2023-06-10T20:37:17;21.80;99.90
12845;DHT22;68700;48.534;9.196;2023-06-10T20:40:39;21.70;1.00
12845;DHT22;68700;48.534;9.196;2023-06-10T20:44:00;21.60;1.00
12845;DHT22;68700;48.534;9.196;2023-06-10T20:47:24;21.50;1.00
12845;DHT22;68700;48.534;9.196;2023-06-10T20:50:45;21.40;1.00
12845;DHT22;68700;48.534;9.196;2023-06-10T20:54:08;21.30;1.00
12845;DHT22;68700;48.534;9.196;2023-06-10T20:57:30;21.30;1.00
12845;DHT22;68700;48.534;9.196;2023-06-10T21:00:52;21.20;1.00
12845;DHT22;68700;48.534;9.196;2023-06-10T21:04:15;21.10;1.00
12845;DHT22;68700;48.534;9.196;2023-06-10T21:07:40;21.00;1.00
12845;DHT22;68700;48.534;9.196;2023-06-10T21:11:05;20.90;1.00
12845;DHT22;68700;48.534;9.196;2023-06-10T21:14:26;20.90;1.00
12845;DHT22;68700;48.534;9.196;2023-06-10T21:17:48;20.90;1.00
12845;DHT22;68700;48.534;9.196;2023-06-10T21:21:12;20.80;1.00
12845;DHT22;68700;48.534;9.196;2023-06-10T21:24:33;20.70;1.00
12845;DHT22;68700;48.534;9.196;2023-06-10T21:27:55;20.60;1.00
12845;DHT22;68700;48.534;9.196;2023-06-10T21:31:18;20.50;1.00
12845;DHT22;68700;48.534;9.196;2023-06-10T21:34:39;20.40;1.00
12845;DHT22;68700;48.534;9.196;2023-06-10T21:38:03;20.30;1.00
12845;DHT22;68700;48.534;9.196;2023-06-10T21:41:24;20.30;1.00
12845;DHT22;68700;48.534;9.196;2023-06-10T21:44:49;20.20;1.00
12845;DHT22;68700;48.534;9.196;2023-06-10T21:48:11;20.00;1.00
12845;DHT22;68700;48.534;9.196;2023-06-10T21:51:33;19.90;1.00
12845;DHT22;68700;48.534;9.196;2023-06-10T21:54:56;19.80;1.00
12845;DHT22;68700;48.534;9.196;2023-06-10T21:58:18;19.70;1.00
12845;DHT22;68700;48.534;9.196;2023-06-10T22:01:42;19.60;1.00
12845;DHT22;68700;48.534;9.196;2023-06-10T22:05:04;19.50;1.00
12845;DHT22;68700;48.534;9.196;2023-06-10T22:08:26;19.40;1.00
12845;DHT22;68700;48.534;9.196;2023-06-10T22:11:50;19.40;1.00
12845;DHT22;68700;48.534;9.196;2023-06-10T22:15:12;19.30;1.00